Paskenta, California
Current Conditions -  °F | °C
As of 10:54 AM on Thursday 23 Oct 2014 (Local Time) from KRBL Reporting Station
Light Rain Light Rain  
Wind Chill: 59°   Ceiling: 11000
Heat Index: 59°   Visibility: 10mi
Dew Point: 56°   Wind: 5mph
Humidity: 90%   Direction: 340°NNW
Pressure: 30.07"   Gusts: NA
Location:  39.88°N, 122.55°W
Report Text: KRBL 231754Z AUTO 34004KT 10SM -RA FEW085 OVC110 15/13 A3007 RMK AO2 SLP180 P0001 60006 T01500133 10150 20139 51009
Loading
Personal Weather Stations






























Interactive Weather Map
Tropical Storm Tracking
New forecast layout! Learn more

10-Day Weather Forecast

Advertisements
Track Severe Weather on mobile